createdAt,value
2023-04-20T00:00:29.491Z,21.8
2023-04-20T00:01:36.250Z,21.8
2023-04-20T00:03:09.866Z,21.8
2023-04-20T00:04:17.080Z,21.8
2023-04-20T00:05:55.825Z,21.8
2023-04-20T00:07:34.579Z,21.7
2023-04-20T00:09:13.342Z,21.7
2023-04-20T00:10:52.079Z,21.7
2023-04-20T00:12:30.826Z,21.7
2023-04-20T00:14:09.585Z,21.8
2023-04-20T00:15:48.342Z,21.7
2023-04-20T00:17:27.101Z,21.8
2023-04-20T00:19:05.837Z,21.8
2023-04-20T00:20:13.032Z,21.7
2023-04-20T00:21:20.233Z,21.8
2023-04-20T00:25:28.242Z,21.8
2023-04-20T00:28:44.852Z,21.7
2023-04-20T00:30:39.789Z,21.7
2023-04-20T00:32:18.529Z,21.7
2023-04-20T00:33:57.289Z,21.7
2023-04-20T00:35:36.040Z,21.7
2023-04-20T00:36:43.250Z,21.7
2023-04-20T00:37:50.447Z,21.7
2023-04-20T00:39:29.200Z,21.7
2023-04-20T00:41:07.948Z,21.7
2023-04-20T00:42:46.690Z,21.6
2023-04-20T00:44:25.430Z,21.6
2023-04-20T00:46:04.181Z,21.6
2023-04-20T00:47:42.949Z,21.7
2023-04-20T00:49:21.685Z,21.7
2023-04-20T00:51:00.440Z,21.7
2023-04-20T00:52:39.178Z,21.6
2023-04-20T00:53:46.380Z,21.6
2023-04-20T00:54:53.577Z,21.7
2023-04-20T00:56:32.324Z,21.6
2023-04-20T00:58:11.094Z,21.6
2023-04-20T00:59:49.836Z,21.6
2023-04-20T01:01:28.581Z,21.6
2023-04-20T01:03:07.326Z,21.6
2023-04-20T01:04:46.073Z,21.6
2023-04-20T01:06:24.821Z,21.6
2023-04-20T01:10:14.402Z,21.6
2023-04-20T01:11:21.170Z,21.6
2023-04-20T01:12:27.902Z,21.6
2023-04-20T01:13:34.627Z,21.6
2023-04-20T01:15:48.079Z,21.6
2023-04-20T01:16:54.799Z,21.6
2023-04-20T01:18:01.522Z,21.6
2023-04-20T01:19:08.242Z,21.6
2023-04-20T01:20:14.989Z,21.6
2023-04-20T01:21:21.701Z,21.6
2023-04-20T01:22:28.420Z,21.6
2023-04-20T01:23:35.155Z,21.6
2023-04-20T01:24:41.868Z,21.6
2023-04-20T01:25:48.600Z,21.6
2023-04-20T01:26:55.327Z,21.6
2023-04-20T01:28:02.047Z,21.6
2023-04-20T01:29:08.763Z,21.6
2023-04-20T01:30:15.504Z,21.6
2023-04-20T01:31:22.222Z,21.6
2023-04-20T01:32:28.952Z,21.6
2023-04-20T01:33:35.689Z,21.6
2023-04-20T01:34:42.395Z,21.6
2023-04-20T01:35:49.123Z,21.6
2023-04-20T01:36:55.849Z,21.5
2023-04-20T01:38:02.579Z,21.6
2023-04-20T01:40:14.857Z,21.6
2023-04-20T01:41:53.551Z,21.6
2023-04-20T01:43:07.431Z,21.6
2023-04-20T01:44:14.625Z,21.6
2023-04-20T01:45:53.378Z,21.6
2023-04-20T01:47:32.120Z,21.5
2023-04-20T01:49:10.854Z,21.5
2023-04-20T01:50:49.603Z,21.6
2023-04-20T01:52:28.357Z,21.6
2023-04-20T01:54:07.098Z,21.6
2023-04-20T01:55:45.851Z,21.6
2023-04-20T01:57:24.592Z,21.6
2023-04-20T01:59:03.353Z,21.6
2023-04-20T02:00:43.087Z,21.5
2023-04-20T02:04:00.529Z,21.5
2023-04-20T02:07:17.965Z,21.6
2023-04-20T02:10:35.404Z,21.5
2023-04-20T02:13:51.918Z,21.5
2023-04-20T02:15:38.747Z,21.5
2023-04-20T02:17:17.491Z,21.5
2023-04-20T02:18:56.244Z,21.5
2023-04-20T02:20:34.988Z,21.5
2023-04-20T02:22:13.741Z,21.5
2023-04-20T02:23:52.490Z,21.5
2023-04-20T02:24:59.691Z,21.5
2023-04-20T02:26:06.898Z,21.5
2023-04-20T02:27:45.641Z,21.5
2023-04-20T02:29:24.380Z,21.5
2023-04-20T02:31:03.132Z,21.5
2023-04-20T02:32:41.889Z,21.5
2023-04-20T02:34:20.630Z,21.5
2023-04-20T02:35:59.366Z,21.5
2023-04-20T02:37:38.121Z,21.5
2023-04-20T02:39:16.873Z,21.4
2023-04-20T02:40:55.630Z,21.5
2023-04-20T02:42:02.822Z,21.5
2023-04-20T02:43:10.014Z,21.5
2023-04-20T02:44:48.770Z,21.5
2023-04-20T02:46:27.508Z,21.5
2023-04-20T02:48:06.249Z,21.5
2023-04-20T02:49:45.015Z,21.5
2023-04-20T02:51:23.748Z,21.5
2023-04-20T02:55:31.758Z,21.5
2023-04-20T02:58:29.903Z,21.5
2023-04-20T02:59:37.084Z,21.4
2023-04-20T03:01:15.945Z,21.4
2023-04-20T03:02:54.588Z,21.4
2023-04-20T03:04:33.333Z,21.4
2023-04-20T03:06:12.091Z,21.4
2023-04-20T03:07:50.831Z,21.4
2023-04-20T03:09:29.586Z,21.4
2023-04-20T03:11:08.333Z,21.4
2023-04-20T03:12:47.089Z,21.4
2023-04-20T03:14:25.842Z,21.4
2023-04-20T03:16:04.591Z,21.4
2023-04-20T03:17:11.783Z,21.4
2023-04-20T03:18:18.999Z,21.4
2023-04-20T03:19:57.749Z,21.4
2023-04-20T03:21:36.492Z,21.4
2023-04-20T03:23:15.234Z,21.4
2023-04-20T03:24:54.000Z,21.3
2023-04-20T03:26:32.745Z,21.4
2023-04-20T03:28:11.488Z,21.4
2023-04-20T03:29:50.233Z,21.3
2023-04-20T03:31:28.985Z,21.3
2023-04-20T03:33:07.731Z,21.3
2023-04-20T03:34:14.930Z,21.3
2023-04-20T03:35:22.128Z,21.3
2023-04-20T03:39:30.153Z,21.3
2023-04-20T03:42:47.582Z,21.3
2023-04-20T03:46:05.024Z,21.4
2023-04-20T03:49:22.472Z,21.3
2023-04-20T03:50:42.963Z,21.3
2023-04-20T03:52:39.901Z,21.3
2023-04-20T03:55:56.420Z,21.3
2023-04-20T03:57:43.256Z,21.3
2023-04-20T03:59:21.999Z,21.3
2023-04-20T04:01:00.751Z,21.3
2023-04-20T04:02:39.497Z,21.3
2023-04-20T04:04:18.286Z,21.3
2023-04-20T04:05:56.991Z,21.2
2023-04-20T04:07:35.736Z,21.2
2023-04-20T04:09:14.489Z,21.3
2023-04-20T04:10:53.221Z,21.3
2023-04-20T04:12:31.972Z,21.3
2023-04-20T04:14:10.722Z,21.3
2023-04-20T04:15:49.470Z,21.2
2023-04-20T04:17:28.205Z,21.2
2023-04-20T04:19:06.969Z,21.2
2023-04-20T04:20:45.699Z,21.3
2023-04-20T04:22:24.454Z,21.3
2023-04-20T04:23:35.951Z,21.3
2023-04-20T04:24:43.151Z,21.3
2023-04-20T04:26:21.895Z,21.2
2023-04-20T04:28:00.642Z,21.2
2023-04-20T04:29:39.385Z,21.2
2023-04-20T04:31:18.139Z,21.3
2023-04-20T04:32:56.918Z,21.2
2023-04-20T04:34:35.620Z,21.2
2023-04-20T04:38:43.739Z,21.2
2023-04-20T04:40:03.948Z,21.3
2023-04-20T04:41:59.564Z,21.3
2023-04-20T04:43:06.307Z,21.2
2023-04-20T04:44:13.016Z,21.2
2023-04-20T04:45:19.739Z,21.2
2023-04-20T04:46:26.468Z,21.2
2023-04-20T04:47:33.186Z,21.2
2023-04-20T04:49:46.651Z,21.1
2023-04-20T04:50:53.374Z,21.1
2023-04-20T04:52:00.112Z,21.2
2023-04-20T04:53:06.811Z,21.2
2023-04-20T04:54:13.528Z,21.2
2023-04-20T04:55:20.268Z,21.3
2023-04-20T04:56:26.978Z,21.2
2023-04-20T04:57:33.707Z,21.2
2023-04-20T04:58:40.441Z,21.2
2023-04-20T04:59:47.145Z,21.3
2023-04-20T05:00:53.880Z,21.3
2023-04-20T05:02:00.604Z,21.2
2023-04-20T05:03:07.332Z,21.2
2023-04-20T05:04:14.053Z,21.2
2023-04-20T05:05:20.770Z,21.2
2023-04-20T05:06:27.516Z,21.3
2023-04-20T05:07:34.230Z,21.3
2023-04-20T05:08:40.959Z,21.3
2023-04-20T05:10:53.199Z,21.3
2023-04-20T05:12:31.945Z,21.2
2023-04-20T05:13:39.165Z,21.2
2023-04-20T05:14:46.344Z,21.2
2023-04-20T05:16:25.095Z,21.2
2023-04-20T05:18:03.845Z,21.3
2023-04-20T05:19:42.586Z,21.3
2023-04-20T05:21:21.328Z,21.3
2023-04-20T05:23:00.089Z,21.3
2023-04-20T05:24:38.824Z,21.2
2023-04-20T05:26:17.624Z,21.2
2023-04-20T05:27:56.323Z,21.3
2023-04-20T05:29:35.053Z,21.3
2023-04-20T05:31:14.763Z,21.3
2023-04-20T05:34:32.190Z,21.3
2023-04-20T05:37:49.633Z,21.2
2023-04-20T05:41:06.148Z,21.2
2023-04-20T05:42:53.011Z,21.2
2023-04-20T05:44:31.762Z,21.2
2023-04-20T05:46:10.479Z,21.2
2023-04-20T05:47:49.225Z,21.3
2023-04-20T05:49:27.972Z,21.3
2023-04-20T05:51:06.713Z,21.3
2023-04-20T05:52:45.469Z,21.3
2023-04-20T05:54:24.213Z,21.3
2023-04-20T05:55:31.420Z,21.3
2023-04-20T05:56:38.615Z,21.3
2023-04-20T05:58:17.459Z,21.3
2023-04-20T05:59:56.119Z,21.3
2023-04-20T06:01:34.888Z,21.3
2023-04-20T06:03:13.671Z,21.3
2023-04-20T06:04:52.401Z,21.3
2023-04-20T06:06:31.096Z,21.3
2023-04-20T06:08:09.840Z,21.3
2023-04-20T06:09:48.692Z,21.3
2023-04-20T06:11:27.343Z,21.3
2023-04-20T06:12:34.617Z,21.3
2023-04-20T06:13:41.737Z,21.3
2023-04-20T06:15:20.483Z,21.3
2023-04-20T06:16:59.225Z,21.2
2023-04-20T06:18:37.994Z,21.3
2023-04-20T06:22:46.054Z,21.3
2023-04-20T06:26:03.411Z,21.3
2023-04-20T06:29:02.523Z,21.3
2023-04-20T06:31:16.018Z,21.2
2023-04-20T06:32:22.777Z,21.2
2023-04-20T06:33:29.476Z,21.2
2023-04-20T06:34:36.212Z,21.2
2023-04-20T06:35:42.929Z,21.2
2023-04-20T06:37:56.360Z,21.2
2023-04-20T06:39:03.084Z,21.3
2023-04-20T06:40:09.811Z,21.2
2023-04-20T06:41:16.536Z,21.2
2023-04-20T06:42:23.235Z,21.3
2023-04-20T06:44:36.682Z,21.2
2023-04-20T06:45:43.414Z,21.2
2023-04-20T06:47:56.873Z,21.2
2023-04-20T06:49:03.591Z,21.2
2023-04-20T06:50:10.298Z,21.2
2023-04-20T06:51:17.065Z,21.3
2023-04-20T06:52:23.768Z,21.2
2023-04-20T06:53:30.470Z,21.2
2023-04-20T06:54:37.200Z,21.2
2023-04-20T06:55:43.916Z,21.2
2023-04-20T06:56:50.635Z,21.2
2023-04-20T06:59:02.890Z,21.2
2023-04-20T07:00:41.617Z,21.2
2023-04-20T07:01:55.568Z,21.3
2023-04-20T07:03:02.804Z,21.3
2023-04-20T07:04:41.498Z,21.3
2023-04-20T07:06:20.298Z,21.3
2023-04-20T07:07:59.030Z,21.3
2023-04-20T07:09:37.768Z,21.3
2023-04-20T07:11:16.484Z,21.4
2023-04-20T07:12:55.235Z,21.5
2023-04-20T07:14:33.999Z,21.5
2023-04-20T07:16:12.722Z,21.5
2023-04-20T07:17:51.470Z,21.5
2023-04-20T07:19:31.248Z,21.6
2023-04-20T07:22:48.671Z,21.5
2023-04-20T07:26:04.608Z,21.5
2023-04-20T07:27:11.326Z,21.5
2023-04-20T07:28:18.084Z,21.5
2023-04-20T07:29:24.825Z,21.5
2023-04-20T07:31:38.230Z,21.5
2023-04-20T07:32:44.958Z,21.5
2023-04-20T07:33:51.696Z,21.5
2023-04-20T07:34:58.429Z,21.5
2023-04-20T07:36:05.130Z,21.5
2023-04-20T07:37:11.850Z,21.7
2023-04-20T07:38:18.657Z,21.7
2023-04-20T07:39:25.296Z,21.7
2023-04-20T07:40:32.030Z,21.7
2023-04-20T07:41:38.751Z,21.7
2023-04-20T07:42:45.481Z,21.7
2023-04-20T07:43:52.202Z,21.8
2023-04-20T07:44:58.926Z,21.7
2023-04-20T07:46:05.659Z,21.7
2023-04-20T07:47:12.383Z,21.7
2023-04-20T07:48:19.111Z,21.6
2023-04-20T07:49:25.826Z,21.6
2023-04-20T07:50:32.542Z,21.6
2023-04-20T07:51:39.295Z,21.6
2023-04-20T07:52:46.003Z,21.6
2023-04-20T07:54:20.188Z,21.6
2023-04-20T07:55:58.948Z,21.6
2023-04-20T07:57:37.691Z,21.6
2023-04-20T07:59:16.432Z,21.6
2023-04-20T08:00:55.203Z,21.6
2023-04-20T08:02:02.396Z,21.7
2023-04-20T08:03:09.592Z,21.7
2023-04-20T08:04:48.338Z,21.8
2023-04-20T08:06:27.089Z,21.9
2023-04-20T08:08:05.882Z,21.9
2023-04-20T08:09:44.592Z,21.8
2023-04-20T08:11:23.333Z,21.8
2023-04-20T08:13:02.079Z,21.8
2023-04-20T08:17:10.277Z,21.8
2023-04-20T08:18:30.572Z,21.7
2023-04-20T08:20:26.080Z,21.8
2023-04-20T08:21:32.918Z,21.9
2023-04-20T08:22:39.472Z,21.9
2023-04-20T08:23:46.381Z,21.9
2023-04-20T08:24:53.094Z,21.9
2023-04-20T08:25:59.842Z,21.9
2023-04-20T08:28:13.286Z,21.9
2023-04-20T08:29:20.008Z,21.8
2023-04-20T08:30:26.694Z,21.8
2023-04-20T08:31:33.462Z,21.8
2023-04-20T08:32:40.182Z,21.9
2023-04-20T08:33:48.053Z,21.9
2023-04-20T08:34:53.442Z,21.9
2023-04-20T08:36:00.164Z,21.9
2023-04-20T08:37:06.889Z,21.9
2023-04-20T08:38:13.608Z,21.9
2023-04-20T08:39:20.336Z,21.8
2023-04-20T08:40:27.062Z,21.8
2023-04-20T08:41:33.772Z,21.8
2023-04-20T08:42:40.507Z,21.8
2023-04-20T08:43:47.231Z,21.9
2023-04-20T08:44:53.953Z,21.9
2023-04-20T08:46:00.673Z,22
2023-04-20T08:47:07.459Z,22
2023-04-20T08:49:19.685Z,22.1
2023-04-20T08:50:58.428Z,22.3
2023-04-20T08:52:05.625Z,22.5
2023-04-20T08:53:12.823Z,22.6
2023-04-20T08:54:51.573Z,22.6
2023-04-20T08:56:30.310Z,22.7
2023-04-20T08:58:09.061Z,22.8
2023-04-20T08:59:47.803Z,22.9
2023-04-20T09:01:26.538Z,23.2
2023-04-20T09:03:05.293Z,23.1
2023-04-20T09:04:44.042Z,23.2
2023-04-20T09:06:22.788Z,24.2
2023-04-20T09:08:01.527Z,23.9
2023-04-20T09:09:41.283Z,23.3
2023-04-20T09:12:57.790Z,23.1
2023-04-20T09:14:44.630Z,24.2
2023-04-20T09:16:23.367Z,23.4
2023-04-20T09:18:02.124Z,23.2
2023-04-20T09:19:40.858Z,23.1
2023-04-20T09:21:19.609Z,22.9
2023-04-20T09:22:58.338Z,22.8
2023-04-20T09:24:37.083Z,22.8
2023-04-20T09:26:15.832Z,22.7
2023-04-20T09:27:54.583Z,22.6
2023-04-20T09:29:33.313Z,22.6
2023-04-20T09:31:12.065Z,22.5
2023-04-20T09:32:50.814Z,22.4
2023-04-20T09:33:57.999Z,22.4
2023-04-20T09:35:05.205Z,22.4
2023-04-20T09:36:43.948Z,22.4
2023-04-20T09:38:22.684Z,22.3
2023-04-20T09:40:01.426Z,22.3
2023-04-20T09:41:40.183Z,22.3
2023-04-20T09:43:18.917Z,22.3
2023-04-20T09:44:57.658Z,22.3
2023-04-20T09:46:36.401Z,22.4
2023-04-20T09:48:15.145Z,22.9
2023-04-20T09:49:53.894Z,22.9
2023-04-20T09:51:01.086Z,22.9
2023-04-20T09:54:01.932Z,22.8
2023-04-20T09:57:19.391Z,22.9
2023-04-20T10:00:36.804Z,23.3
2023-04-20T10:03:53.330Z,24.8
2023-04-20T10:05:40.157Z,23.9
2023-04-20T10:07:18.903Z,24.1
2023-04-20T10:08:26.108Z,23.6
2023-04-20T10:09:33.300Z,23.3
2023-04-20T10:11:12.047Z,23.1
2023-04-20T10:12:50.778Z,22.9
2023-04-20T10:14:29.513Z,22.8
2023-04-20T10:16:08.260Z,22.7
2023-04-20T10:17:47.136Z,22.7
2023-04-20T10:19:25.746Z,22.7
2023-04-20T10:21:04.495Z,22.7
2023-04-20T10:22:43.326Z,22.7
2023-04-20T10:24:21.991Z,22.8
2023-04-20T10:25:29.195Z,22.7
2023-04-20T10:26:36.388Z,22.7
2023-04-20T10:28:15.126Z,22.6
2023-04-20T10:29:53.863Z,22.6
2023-04-20T10:31:32.602Z,22.6
2023-04-20T10:33:11.363Z,22.7
2023-04-20T10:34:50.092Z,22.9
2023-04-20T10:36:28.830Z,23.1
2023-04-20T10:38:07.572Z,23
2023-04-20T10:39:46.325Z,22.9
2023-04-20T10:41:25.060Z,23.1
2023-04-20T10:43:04.813Z,23.3
2023-04-20T10:46:22.256Z,23.4
2023-04-20T10:49:39.688Z,27.6
2023-04-20T10:52:57.135Z,27.1
2023-04-20T10:56:13.653Z,28.6
2023-04-20T10:58:00.476Z,25.4
2023-04-20T10:59:39.224Z,24.7
2023-04-20T11:01:17.976Z,24.4
2023-04-20T11:02:56.718Z,24.4
2023-04-20T11:04:35.466Z,25.2
2023-04-20T11:06:14.221Z,24.7
2023-04-20T11:07:21.403Z,24.4
2023-04-20T11:08:28.592Z,24.3
2023-04-20T11:10:07.370Z,24.2
2023-04-20T11:11:46.093Z,24.2
2023-04-20T11:13:24.824Z,25.2
2023-04-20T11:15:03.592Z,27.9
2023-04-20T11:16:42.324Z,26.3
2023-04-20T11:18:21.070Z,26.2
2023-04-20T11:19:59.833Z,25.5
2023-04-20T11:21:38.616Z,25.3
2023-04-20T11:23:17.301Z,24.8
2023-04-20T11:24:24.503Z,24.5
2023-04-20T11:25:31.741Z,25.5
2023-04-20T11:27:10.444Z,26.1
2023-04-20T11:28:49.193Z,27.2
2023-04-20T11:30:27.951Z,28.3
2023-04-20T11:32:06.689Z,29
2023-04-20T11:33:45.462Z,29.6
2023-04-20T11:37:53.485Z,28.6
2023-04-20T11:40:52.545Z,28
2023-04-20T11:42:00.826Z,25.8
2023-04-20T11:45:18.193Z,25.4
2023-04-20T11:48:34.721Z,24.9
2023-04-20T11:50:21.552Z,24.5
2023-04-20T11:52:00.320Z,24.4
2023-04-20T11:53:39.026Z,24.5
2023-04-20T11:55:17.766Z,25.3
2023-04-20T11:56:56.509Z,28.5
2023-04-20T11:58:35.378Z,27.1
2023-04-20T12:00:14.001Z,25.9
2023-04-20T12:01:52.751Z,25.2
2023-04-20T12:03:31.557Z,24.7
2023-04-20T12:05:10.231Z,24.4
2023-04-20T12:06:49.126Z,24.1
2023-04-20T12:08:27.712Z,23.9
2023-04-20T12:10:06.460Z,23.8
2023-04-20T12:11:45.247Z,23.7
2023-04-20T12:13:23.950Z,23.7
2023-04-20T12:14:31.155Z,23.6
2023-04-20T12:15:38.345Z,23.6
2023-04-20T12:17:17.152Z,23.7
2023-04-20T12:18:55.906Z,24
2023-04-20T12:20:34.653Z,26
2023-04-20T12:22:13.325Z,28.9
2023-04-20T12:23:52.162Z,27.8
2023-04-20T12:25:30.885Z,26.5
2023-04-20T12:27:09.551Z,27
2023-04-20T12:30:59.210Z,26.7
2023-04-20T12:32:07.344Z,26.6
2023-04-20T12:35:23.297Z,26.3
2023-04-20T12:37:36.736Z,26.4
2023-04-20T12:38:43.525Z,26
2023-04-20T12:39:50.218Z,25.8
2023-04-20T12:40:56.954Z,26
2023-04-20T12:42:03.669Z,28.1
2023-04-20T12:43:10.380Z,28
2023-04-20T12:44:17.106Z,28.2
2023-04-20T12:45:23.833Z,27.3
2023-04-20T12:46:30.555Z,26.9
2023-04-20T12:47:37.276Z,26.3
2023-04-20T12:49:50.727Z,25.7
2023-04-20T12:50:57.449Z,25.4
2023-04-20T12:52:04.220Z,25.1
2023-04-20T12:53:10.999Z,24.9
2023-04-20T12:54:17.668Z,24.8
2023-04-20T12:55:24.396Z,24.7
2023-04-20T12:56:31.096Z,24.6
2023-04-20T12:57:37.841Z,24.5
2023-04-20T12:58:44.684Z,24.4
2023-04-20T12:59:51.281Z,24.4
2023-04-20T13:00:58.077Z,24.3
2023-04-20T13:02:04.760Z,24.3
2023-04-20T13:03:52.136Z,24.5
2023-04-20T13:04:59.338Z,27
2023-04-20T13:06:38.133Z,26.9
2023-04-20T13:08:16.911Z,29.7
2023-04-20T13:09:55.641Z,28.8
2023-04-20T13:11:34.320Z,28
2023-04-20T13:13:13.069Z,27.8
2023-04-20T13:14:51.825Z,28.7
2023-04-20T13:18:09.303Z,27.3
2023-04-20T13:19:48.207Z,29.8
2023-04-20T13:20:55.239Z,30.7
2023-04-20T13:22:02.435Z,31.5
2023-04-20T13:26:10.662Z,31.9
2023-04-20T13:29:27.900Z,32.4
2023-04-20T13:32:45.322Z,31.6
2023-04-20T13:36:02.806Z,27.6
2023-04-20T13:37:23.277Z,26
2023-04-20T13:39:18.679Z,26.1
2023-04-20T13:40:25.484Z,26.3
2023-04-20T13:41:32.127Z,26.1
2023-04-20T13:43:45.598Z,28.2
2023-04-20T13:44:52.375Z,27.1
2023-04-20T13:45:59.024Z,26.5
2023-04-20T13:47:05.738Z,26
2023-04-20T13:48:12.478Z,25.6
2023-04-20T13:49:19.244Z,25.5
2023-04-20T13:50:25.972Z,25.8
2023-04-20T13:51:32.689Z,26
2023-04-20T13:52:39.510Z,26
2023-04-20T13:53:46.107Z,26.1
2023-04-20T13:54:52.871Z,26.2
2023-04-20T13:55:59.542Z,27
2023-04-20T13:58:12.987Z,28.1
2023-04-20T13:59:19.727Z,28.3
2023-04-20T14:00:26.468Z,28
2023-04-20T14:01:33.151Z,28.1
2023-04-20T14:02:39.884Z,27.8
2023-04-20T14:03:46.606Z,27.7
2023-04-20T14:04:53.380Z,27.6
2023-04-20T14:06:00.109Z,27.3
2023-04-20T14:08:12.337Z,26.6
2023-04-20T14:09:51.069Z,26.4
2023-04-20T14:10:58.278Z,26.2
2023-04-20T14:12:05.472Z,26
2023-04-20T14:13:44.214Z,25.8
2023-04-20T14:15:22.976Z,25.6
2023-04-20T14:17:01.718Z,25.4
2023-04-20T14:18:40.460Z,25.2
2023-04-20T14:20:19.187Z,25
2023-04-20T14:21:57.938Z,24.9
2023-04-20T14:23:36.818Z,24.9
2023-04-20T14:25:15.435Z,24.9
2023-04-20T14:26:54.183Z,24.8
2023-04-20T14:28:33.989Z,24.8
2023-04-20T14:33:37.268Z,25
2023-04-20T14:35:16.141Z,25.5
2023-04-20T14:36:54.943Z,25.4
2023-04-20T14:38:33.563Z,25.1
2023-04-20T14:40:12.255Z,25
2023-04-20T14:41:50.994Z,25
2023-04-20T14:43:29.834Z,25.1
2023-04-20T14:45:08.536Z,25.1
2023-04-20T14:46:47.229Z,25.1
2023-04-20T14:48:25.974Z,25
2023-04-20T14:50:04.823Z,24.9
2023-04-20T14:51:43.578Z,24.7
2023-04-20T14:52:50.713Z,24.7
2023-04-20T14:53:57.873Z,24.7
2023-04-20T14:55:36.648Z,24.6
2023-04-20T14:57:15.333Z,24.4
2023-04-20T14:58:54.109Z,24.3
2023-04-20T15:00:32.827Z,24.2
2023-04-20T15:02:11.580Z,24.1
2023-04-20T15:03:50.310Z,24.2
2023-04-20T15:05:29.057Z,24.3
2023-04-20T15:07:07.827Z,24.3
2023-04-20T15:08:46.789Z,24.3
2023-04-20T15:09:53.775Z,24.3
2023-04-20T15:12:54.602Z,24.2
2023-04-20T15:16:11.112Z,24.3
2023-04-20T15:17:57.945Z,24.3
2023-04-20T15:19:36.793Z,24.3
2023-04-20T15:21:15.542Z,24.3
2023-04-20T15:22:54.181Z,24.3
2023-04-20T15:24:32.985Z,24.3
2023-04-20T15:26:11.701Z,24.3
2023-04-20T15:27:18.877Z,24.2
2023-04-20T15:28:26.076Z,24.2
2023-04-20T15:30:04.859Z,24.1
2023-04-20T15:31:43.590Z,24
2023-04-20T15:33:22.372Z,24
2023-04-20T15:35:01.079Z,24
2023-04-20T15:36:39.761Z,23.9
2023-04-20T15:38:18.543Z,23.9
2023-04-20T15:39:57.389Z,23.9
2023-04-20T15:41:35.995Z,23.9
2023-04-20T15:43:14.760Z,23.8
2023-04-20T15:44:21.938Z,23.7
2023-04-20T15:45:29.143Z,23.6
2023-04-20T15:47:07.873Z,23.6
2023-04-20T15:48:46.620Z,23.5
2023-04-20T15:50:25.435Z,23.5
2023-04-20T15:52:04.238Z,23.4
2023-04-20T15:53:42.862Z,23.4
2023-04-20T15:57:50.946Z,23.3
2023-04-20T16:00:50.072Z,23.2
2023-04-20T16:01:57.313Z,23.2
2023-04-20T16:03:44.140Z,23.2
2023-04-20T16:05:23.007Z,23.1
2023-04-20T16:07:01.604Z,23.1
2023-04-20T16:08:40.610Z,23.2
2023-04-20T16:10:19.191Z,23.3
2023-04-20T16:11:57.889Z,23.3
2023-04-20T16:13:36.827Z,23.3
2023-04-20T16:15:15.408Z,23.2
2023-04-20T16:16:54.104Z,23.2
2023-04-20T16:18:32.939Z,23.2
2023-04-20T16:20:11.579Z,23.1
2023-04-20T16:21:50.332Z,23
2023-04-20T16:23:29.232Z,23
2023-04-20T16:25:07.817Z,23
2023-04-20T16:26:46.591Z,23
2023-04-20T16:28:25.418Z,22.9
2023-04-20T16:30:04.028Z,22.9
2023-04-20T16:31:42.864Z,22.9
2023-04-20T16:33:21.533Z,22.9
2023-04-20T16:34:28.805Z,22.9
2023-04-20T16:35:36.018Z,22.9
2023-04-20T16:37:14.665Z,22.8
2023-04-20T16:38:53.409Z,22.8
2023-04-20T16:40:32.210Z,22.8
2023-04-20T16:44:40.174Z,22.7
2023-04-20T16:47:57.609Z,22.7
2023-04-20T16:50:56.827Z,22.6
2023-04-20T16:52:04.956Z,22.6
2023-04-20T16:56:27.613Z,22.5
2023-04-20T16:57:34.308Z,22.5
2023-04-20T16:58:41.034Z,22.5
2023-04-20T16:59:47.744Z,22.5
2023-04-20T17:00:54.515Z,22.4
2023-04-20T17:02:01.207Z,22.4
2023-04-20T17:03:07.921Z,22.4
2023-04-20T17:04:14.668Z,22.4
2023-04-20T17:05:21.371Z,22.4
2023-04-20T17:06:28.097Z,22.4
2023-04-20T17:07:34.861Z,22.3
2023-04-20T17:08:41.597Z,22.3
2023-04-20T17:09:48.262Z,22.3
2023-04-20T17:10:54.983Z,22.3
2023-04-20T17:12:01.704Z,22.3
2023-04-20T17:13:08.422Z,22.3
2023-04-20T17:14:15.155Z,22.3
2023-04-20T17:15:21.870Z,22.3
2023-04-20T17:16:28.607Z,22.3
2023-04-20T17:17:35.347Z,22.3
2023-04-20T17:18:42.102Z,22.3
2023-04-20T17:19:48.836Z,22.2
2023-04-20T17:20:55.544Z,22.2
2023-04-20T17:22:02.276Z,22.2
2023-04-20T17:23:49.754Z,22.2
2023-04-20T17:24:56.977Z,22.2
2023-04-20T17:26:35.814Z,22.2
2023-04-20T17:28:14.506Z,22.2
2023-04-20T17:29:53.191Z,22.2
2023-04-20T17:31:31.914Z,22.2
2023-04-20T17:33:10.670Z,22.2
2023-04-20T17:34:49.396Z,22.2
2023-04-20T17:36:28.138Z,22.2
2023-04-20T17:38:06.907Z,22.2
2023-04-20T17:39:45.613Z,22.2
2023-04-20T17:40:52.911Z,22.2
2023-04-20T17:42:00.172Z,22.2
2023-04-20T17:46:08.126Z,22.2
2023-04-20T17:49:24.107Z,21.4
2023-04-20T17:50:30.004Z,21.7
2023-04-20T17:51:36.796Z,21.8
2023-04-20T17:52:43.481Z,21.8
2023-04-20T17:53:50.202Z,21.9
2023-04-20T17:54:56.932Z,21.9
2023-04-20T17:56:03.638Z,21.9
2023-04-20T17:57:10.361Z,21.9
2023-04-20T17:58:17.101Z,21.9
2023-04-20T17:59:23.836Z,21.9
2023-04-20T18:00:30.528Z,21.9
2023-04-20T18:01:37.290Z,21.9
2023-04-20T18:02:43.981Z,21.9
2023-04-20T18:03:50.715Z,21.9
2023-04-20T18:04:57.482Z,21.9
2023-04-20T18:06:04.148Z,21.9
2023-04-20T18:07:10.888Z,21.9
2023-04-20T18:08:17.609Z,21.9
2023-04-20T18:09:24.330Z,21.9
2023-04-20T18:10:31.050Z,21.9
2023-04-20T18:11:37.774Z,21.8
2023-04-20T18:12:44.503Z,21.9
2023-04-20T18:13:51.223Z,21.9
2023-04-20T18:14:58.004Z,22
2023-04-20T18:16:04.786Z,22
2023-04-20T18:17:11.503Z,22
2023-04-20T18:18:18.225Z,22.1
2023-04-20T18:19:24.975Z,22.1
2023-04-20T18:20:31.678Z,22
2023-04-20T18:21:38.413Z,22.1
2023-04-20T18:22:45.125Z,22.1
2023-04-20T18:23:51.847Z,22.1
2023-04-20T18:24:58.575Z,22.1
2023-04-20T18:26:05.318Z,22.1
2023-04-20T18:27:12.027Z,22.1
2023-04-20T18:28:18.738Z,22.1
2023-04-20T18:29:25.534Z,22
2023-04-20T18:30:32.291Z,22
2023-04-20T18:32:44.526Z,22
2023-04-20T18:33:51.780Z,22.1
2023-04-20T18:34:59.038Z,22
2023-04-20T18:36:37.762Z,22
2023-04-20T18:38:16.504Z,22
2023-04-20T18:39:55.251Z,22.1
2023-04-20T18:41:33.993Z,22.1
2023-04-20T18:43:12.731Z,22
2023-04-20T18:44:51.456Z,22
2023-04-20T18:46:30.199Z,22
2023-04-20T18:48:08.940Z,22
2023-04-20T18:49:47.669Z,22
2023-04-20T18:50:54.917Z,22
2023-04-20T18:53:55.701Z,22
2023-04-20T18:57:13.118Z,22
2023-04-20T19:00:30.546Z,22
2023-04-20T19:03:46.460Z,22
2023-04-20T19:04:53.239Z,22
2023-04-20T19:06:00.020Z,22
2023-04-20T19:07:06.787Z,22
2023-04-20T19:08:13.575Z,22
2023-04-20T19:09:20.347Z,22
2023-04-20T19:10:27.117Z,22
2023-04-20T19:11:33.903Z,22
2023-04-20T19:12:40.703Z,22
2023-04-20T19:13:47.506Z,22
2023-04-20T19:14:54.232Z,22
2023-04-20T19:16:01.004Z,22
2023-04-20T19:17:07.886Z,22
2023-04-20T19:18:14.564Z,22
2023-04-20T19:19:21.353Z,22
2023-04-20T19:20:28.138Z,22
2023-04-20T19:21:35.028Z,22
2023-04-20T19:22:41.774Z,22
2023-04-20T19:23:48.456Z,22
2023-04-20T19:24:55.236Z,22
2023-04-20T19:26:02.001Z,22
2023-04-20T19:27:08.785Z,22
2023-04-20T19:28:15.572Z,22
2023-04-20T19:29:22.361Z,22
2023-04-20T19:30:29.141Z,22
2023-04-20T19:32:41.421Z,22
2023-04-20T19:34:16.037Z,22
2023-04-20T19:35:23.284Z,22
2023-04-20T19:37:02.035Z,22
2023-04-20T19:38:40.769Z,22
2023-04-20T19:40:19.489Z,22
2023-04-20T19:41:58.239Z,22
2023-04-20T19:43:37.059Z,22
2023-04-20T19:45:15.741Z,22
2023-04-20T19:46:54.447Z,22
2023-04-20T19:48:33.249Z,22
2023-04-20T19:50:11.920Z,21.9
2023-04-20T19:51:19.176Z,22
2023-04-20T19:54:20.035Z,22
2023-04-20T19:58:42.266Z,22
2023-04-20T19:59:48.750Z,22
2023-04-20T20:00:55.255Z,22
2023-04-20T20:02:01.796Z,22
2023-04-20T20:03:08.415Z,22
2023-04-20T20:04:14.945Z,22
2023-04-20T20:05:21.358Z,22.1
2023-04-20T20:06:27.862Z,22.1
2023-04-20T20:07:34.313Z,22.1
2023-04-20T20:08:40.886Z,22
2023-04-20T20:09:47.337Z,22.2
2023-04-20T20:10:53.995Z,22.8
2023-04-20T20:12:00.412Z,23.2
2023-04-20T20:13:06.961Z,23.5
2023-04-20T20:14:13.502Z,23.7
2023-04-20T20:15:20.051Z,23.8
2023-04-20T20:16:26.650Z,23.9
2023-04-20T20:17:33.095Z,24
2023-04-20T20:18:39.734Z,24
2023-04-20T20:19:46.231Z,24
2023-04-20T20:20:52.789Z,24.1
2023-04-20T20:21:59.273Z,24.1
2023-04-20T20:23:05.870Z,24.1
2023-04-20T20:24:12.368Z,24.1
2023-04-20T20:25:19.072Z,24.1
2023-04-20T20:26:25.838Z,24.1
2023-04-20T20:27:32.598Z,24.1
2023-04-20T20:28:39.465Z,24.1
2023-04-20T20:29:46.177Z,24.1
2023-04-20T20:30:53.070Z,24.2
2023-04-20T20:31:59.827Z,24.2
2023-04-20T20:33:06.536Z,24.2
2023-04-20T20:34:13.330Z,24.2
2023-04-20T20:35:20.071Z,24.2
2023-04-20T20:36:26.864Z,24.2
2023-04-20T20:37:33.671Z,24.2
2023-04-20T20:38:40.432Z,24.1
2023-04-20T20:39:47.614Z,24.1
2023-04-20T20:41:26.575Z,24.1
2023-04-20T20:43:05.099Z,24.1
2023-04-20T20:44:43.849Z,24.1
2023-04-20T20:46:22.599Z,24.1
2023-04-20T20:48:01.321Z,24.1
2023-04-20T20:49:40.072Z,24.2
2023-04-20T20:51:18.901Z,24.2
2023-04-20T20:52:57.544Z,24.2
2023-04-20T20:54:36.290Z,24.2
2023-04-20T20:56:15.013Z,24.2
2023-04-20T20:57:53.764Z,24.2
2023-04-20T20:59:32.485Z,24.2
2023-04-20T21:03:40.525Z,24.2
2023-04-20T21:04:47.921Z,24.2
2023-04-20T21:06:56.994Z,24.3
2023-04-20T21:08:35.680Z,24.3
2023-04-20T21:10:14.464Z,24.3
2023-04-20T21:11:53.185Z,24.3